Washington, DC (20585)

6:00 PM EDT on August 27, 2015 (GMT -0400)
H Street Corridor - NoMa | | Change Station
CLOSE
Current Station
Personal Weather Station
Location: Washington, DC
Elevation: 56 ft
Nearby Weather Stations

Elev 56 ft 38.90 °N, 77.00 °W | Updated 9 seconds ago

Mostly Cloudy
Mostly Cloudy
79.2 °F
Feels Like 80 °F
N
6.0
Wind Variable Wind from NNE
Gusts 7.0 mph

Today
High -- | Low -- °F
--% Chance of Precip.
Yesterday
High -- | Low -- °F
Precip. -- in
6:32 AM 7:46 PM
Waxing Gibbous, 95% visible
Pressure 30.09 in
Visibility 10.0 miles
Clouds Few 6000 ft
Mostly Cloudy 7500 ft
Mostly Cloudy 25000 ft
Heat Index 80 °F
Dew Point 56 °F
Humidity 45%
Rainfall 0.00 in
Snow Depth Not available.
UV 1 out of 12
Pollen 9.60 out of 12
Air Quality Not available.
Flu Activity Not available.
METAR KDCA 272152Z 01006KT 10SM FEW060 BKN075 BKN250 27/13 A3009 RMK AO2 SLP188 T02670128
Pressure 30.09 in
Visibility 10.0 miles
Clouds Few 6000 ft
Mostly Cloudy 7500 ft
Mostly Cloudy 25000 ft
Heat Index 80 °F
Dew Point 56 °F
Humidity 45%
Rainfall 0.00 in
Snow Depth Not available.
UV 1 out of 12
Pollen 9.60 out of 12
Air Quality Not available.
Flu Activity Not available.
METAR KDCA 272152Z 01006KT 10SM FEW060 BKN075 BKN250 27/13 A3009 RMK AO2 SLP188 T02670128

10-Day Weather Forecast

×

Almanac

Astronomy

Aug. 27, 2015 Rise Set
Actual Time
Civil Twilight
Nautical Twilight
Astronomical Twilight
Moon
Length of Visible Light
Length of Day
Tomorrow will be .
, % of the Moon is Illuminated

Today's Extremes

State Highs State Lows

Community

WunderPhotos

Upload Photos

1,850,238 photos uploaded!

WunderBlogs® & News

Nearby

Air Quality

  Air Quality AQ Index Pollutant
Not available.

Snow Depth

Station Depth Elevation

Earthquake Activity

City Distance Mag. Time & Date
Minimum magnitude displayed is 2.5.

Coastal Water Temperatures

Place Temperature

Stations

Nearby Weather Stations

Station Location Temp. Windchill Dew Point Humidity Wind Precip. Elev Updated Type